aviador You're here:

KEST Decoded Metar

ESTHERVILLE in IA, USA
Report Time2017-12-16 17:52:00
UTC Time2017-12-16 18:52:22
Flight Rules vfr VFR
Wind350° at 09 kt
W.Decomp.*RWY 34: 9.0 kt HW 0.6 kt RCW
RWY 06: 2.2 kt HW 8.7 kt LCW
W.Rank350° ranks 11
Current wind is below 350° avg. (10.8)
Visibility9999 m
Phenomena:N/A
Clouds:N/A
Expected CloudBase > 2,400 ft AGL from Temp-Dew spread
CeilingNone
Temp05°C (ISA -7)
Dew Point-1°C (66% RH)
AAT-0.3°C
QNH1010 hPa
Density Alt610 ft
Elevation1,316 ft
Report Wrong Elevation
Raw Report
KEST 161752Z AUTO 35009KT 10SM CLR 05/M01 A2983 RMK AO2 SLP111
T00501011 10050 21039 51022=

Extra information for KEST:More info

Metar Taf Metar & Taf Last 4 Metars F.Rules Stats Wind Profile Meteogram Temp Stats Airport Information Weather charts Add Link Nearby VenuesMetar ALERT Operation Metar Decoded Social comments

AIRNAV info for KEST